Time;durP1;ratioP1;P1;durP2;ratioP2;P2;SDS_P1;SDS_P2;PMS_P1;PMS_P2;Temp;Humidity;BMP_temperature;BMP_pressure;BME280_temperature;BME280_humidity;BME280_pressure;Samples;Min_cycle;Max_cycle;Signal;HPM_P1;HPM_P2
2023/10/06 00:00:48;;;;;;;;;;;;;;;17.08;47.84;100317.97;3171249;28;19924;-69
2023/10/06 00:02:28;;;;;;;;;;;;;;;17.10;47.71;100308.19;3168114;28;19994;-68
2023/10/06 00:04:06;;;;;;;;;;;;;;;17.08;47.64;100302.19;3167724;28;20042;-69
2023/10/06 00:05:38;;;;;;;;;;;;;;;17.05;47.67;100306.69;3169235;28;19970;-68
2023/10/06 00:07:09;;;;;;;;;;;;;;;17.05;47.59;100305.84;3171489;28;20019;-69
2023/10/06 00:08:40;;;;;;;;;;;;;;;17.03;47.73;100303.31;3171542;28;19931;-68
2023/10/06 00:10:18;;;;;;;;;;;;;;;17.01;47.97;100305.22;3163259;28;20294;-68
2023/10/06 00:11:50;;;;;;;;;;;;;;;17.01;47.82;100301.75;3166837;28;19927;-68
2023/10/06 00:13:23;;;;;;;;;;;;;;;17.03;47.67;100302.47;3170858;28;20372;-68
2023/10/06 00:14:57;;;;;;;;;;;;;;;17.04;47.73;100305.00;3171157;28;20328;-68
2023/10/06 00:16:33;;;;;;;;;;;;;;;17.07;47.60;100301.34;3171256;28;19928;-68
2023/10/06 00:18:07;;;;;;;;;;;;;;;17.10;47.50;100295.03;3171726;28;19927;-68
2023/10/06 00:19:39;;;;;;;;;;;;;;;17.11;47.66;100294.94;3171441;28;19924;-70
2023/10/06 00:21:15;;;;;;;;;;;;;;;17.13;47.43;100297.47;3171490;28;20400;-70
2023/10/06 00:22:47;;;;;;;;;;;;;;;17.11;47.60;100291.47;3171256;28;20072;-69
2023/10/06 00:24:23;;;;;;;;;;;;;;;17.09;47.59;100298.59;3171132;28;19931;-67
2023/10/06 00:25:57;;;;;;;;;;;;;;;17.06;47.57;100297.84;3171780;28;19931;-68
2023/10/06 00:27:29;;;;;;;;;;;;;;;17.03;47.84;100292.78;3170895;28;19967;-67
2023/10/06 00:29:01;;;;;;;;;;;;;;;17.05;47.66;100290.06;3171456;28;20049;-67
2023/10/06 00:30:31;;;;;;;;;;;;;;;17.05;47.54;100288.28;3171399;28;19923;-68
2023/10/06 00:32:21;;;;;;;;;;;;;;;17.04;47.85;100288.38;3160583;28;20002;-70
2023/10/06 00:33:53;;;;;;;;;;;;;;;17.00;48.03;100289.50;3163927;28;19975;-67
2023/10/06 00:35:30;;;;;;;;;;;;;;;16.95;48.15;100287.19;3159179;28;19967;-67
2023/10/06 00:37:02;;;;;;;;;;;;;;;16.94;48.07;100289.91;3171112;28;19935;-67
2023/10/06 00:38:36;;;;;;;;;;;;;;;16.90;48.42;100289.25;3171667;28;19939;-68
2023/10/06 00:40:19;;;;;;;;;;;;;;;16.89;48.24;100291.97;3158483;28;19924;-69
2023/10/06 00:41:55;;;;;;;;;;;;;;;16.91;48.12;100295.34;3158928;28;20480;-68
2023/10/06 00:43:34;;;;;;;;;;;;;;;16.92;48.16;100303.16;3159122;28;19928;-68
2023/10/06 00:45:07;;;;;;;;;;;;;;;16.96;48.24;100298.56;3158822;28;19940;-68
2023/10/06 00:46:42;;;;;;;;;;;;;;;16.97;48.19;100302.84;3170934;28;19924;-69
2023/10/06 00:48:14;;;;;;;;;;;;;;;16.97;48.10;100295.81;3171125;28;19963;-69
2023/10/06 00:49:46;;;;;;;;;;;;;;;16.97;48.07;100298.44;3171292;28;20668;-68
2023/10/06 00:51:19;;;;;;;;;;;;;;;16.96;48.20;100295.91;3171560;28;19992;-69
2023/10/06 00:52:51;;;;;;;;;;;;;;;16.89;48.71;100295.47;3170402;28;20310;-68
2023/10/06 00:54:25;;;;;;;;;;;;;;;16.83;48.92;100291.44;3171040;28;19967;-67
2023/10/06 00:55:56;;;;;;;;;;;;;;;16.77;49.06;100297.09;3169626;28;20008;-67
2023/10/06 00:57:29;;;;;;;;;;;;;;;16.75;49.19;100285.78;3171192;28;19924;-67
2023/10/06 00:59:04;;;;;;;;;;;;;;;16.75;49.03;100284.94;3171093;28;19928;-67
2023/10/06 01:00:37;;;;;;;;;;;;;;;16.73;49.33;100282.41;3170615;28;20051;-68
2023/10/06 01:02:10;;;;;;;;;;;;;;;16.71;49.37;100272.91;3168587;28;19978;-68
2023/10/06 01:03:42;;;;;;;;;;;;;;;16.69;49.51;100272.19;3166678;28;19924;-68
2023/10/06 01:05:15;;;;;;;;;;;;;;;16.69;49.29;100280.06;3165364;28;19923;-67
2023/10/06 01:06:46;;;;;;;;;;;;;;;16.68;49.33;100271.34;3170587;28;19972;-68
2023/10/06 01:08:17;;;;;;;;;;;;;;;16.69;49.33;100280.91;3170948;28;19931;-68
2023/10/06 01:09:56;;;;;;;;;;;;;;;16.70;49.23;100277.31;3171254;28;20310;-68
2023/10/06 01:11:26;;;;;;;;;;;;;;;16.71;49.29;100279.03;3171131;28;20358;-68
2023/10/06 01:13:11;;;;;;;;;;;;;;;16.72;49.12;100275.47;3170605;28;19924;-67
2023/10/06 01:14:42;;;;;;;;;;;;;;;16.76;49.12;100276.97;3170354;28;19967;-68
2023/10/06 01:16:15;;;;;;;;;;;;;;;16.79;48.99;100276.78;3170446;28;19935;-67
2023/10/06 01:17:47;;;;;;;;;;;;;;;16.80;48.89;100267.97;3170702;28;19943;-67
2023/10/06 01:19:25;;;;;;;;;;;;;;;16.80;48.85;100272.34;3170664;28;19979;-67
2023/10/06 01:21:08;;;;;;;;;;;;;;;16.77;49.25;100269.91;3170630;28;19928;-68
2023/10/06 01:22:41;;;;;;;;;;;;;;;16.75;49.07;100272.63;3170528;28;20034;-66
2023/10/06 01:24:13;;;;;;;;;;;;;;;16.77;48.97;100276.06;3170586;28;19924;-66
2023/10/06 01:25:43;;;;;;;;;;;;;;;16.80;49.08;100280.25;3170407;28;20388;-66
2023/10/06 01:27:15;;;;;;;;;;;;;;;16.80;48.72;100278.50;3168556;28;20022;-67
2023/10/06 01:28:47;;;;;;;;;;;;;;;16.79;48.79;100281.19;3170894;28;19924;-66
2023/10/06 01:30:19;;;;;;;;;;;;;;;16.79;49.07;100282.03;3170154;28;19932;-66
2023/10/06 01:31:50;;;;;;;;;;;;;;;16.81;48.74;100279.31;3169730;28;19991;-67
2023/10/06 01:33:21;;;;;;;;;;;;;;;16.81;48.79;100281.97;3160100;28;19924;-67
2023/10/06 01:34:52;;;;;;;;;;;;;;;16.78;49.03;100288.25;3159171;28;19967;-67
2023/10/06 01:36:25;;;;;;;;;;;;;;;16.75;49.07;100284.94;3157741;28;19928;-67
2023/10/06 01:37:59;;;;;;;;;;;;;;;16.73;49.28;100282.41;3170574;27;20021;-67
2023/10/06 01:39:32;;;;;;;;;;;;;;;16.74;49.04;100284.09;3170540;28;20465;-67
2023/10/06 01:41:06;;;;;;;;;;;;;;;16.76;49.05;100279.59;3170494;28;19928;-68
2023/10/06 01:42:37;;;;;;;;;;;;;;;16.76;49.06;100289.28;3170131;28;19925;-67
2023/10/06 01:44:10;;;;;;;;;;;;;;;16.73;49.25;100289.44;3167742;28;19923;-68
2023/10/06 01:45:43;;;;;;;;;;;;;;;16.72;49.00;100288.59;3163292;28;19928;-68
2023/10/06 01:47:18;;;;;;;;;;;;;;;16.71;49.07;100294.81;3170412;28;19928;-67
2023/10/06 01:48:48;;;;;;;;;;;;;;;16.70;49.22;100287.84;3170142;28;20427;-68
2023/10/06 01:50:20;;;;;;;;;;;;;;;16.70;49.18;100289.63;3170452;28;19924;-68
2023/10/06 01:51:51;;;;;;;;;;;;;;;16.67;49.21;100288.03;3170304;28;20282;-68
2023/10/06 01:53:31;;;;;;;;;;;;;;;16.67;49.24;100287.19;3170278;28;19931;-68
2023/10/06 01:55:09;;;;;;;;;;;;;;;16.68;49.22;100294.13;3160217;28;20007;-68
2023/10/06 01:56:42;;;;;;;;;;;;;;;16.70;49.15;100287.84;3169980;28;19924;-68
2023/10/06 01:58:12;;;;;;;;;;;;;;;16.72;49.07;100290.41;3170032;28;20389;-67
2023/10/06 01:59:45;;;;;;;;;;;;;;;16.74;49.04;100288.50;3170473;28;19935;-68
2023/10/06 02:01:18;;;;;;;;;;;;;;;16.74;48.92;100288.50;3170005;28;19931;-68
2023/10/06 02:02:50;;;;;;;;;;;;;;;16.73;49.19;100292.06;3163856;28;20302;-68
2023/10/06 02:04:25;;;;;;;;;;;;;;;16.70;48.98;100277.31;3161954;28;19935;-69
2023/10/06 02:05:59;;;;;;;;;;;;;;;16.66;49.06;100277.63;3170506;28;19924;-69
2023/10/06 02:07:35;;;;;;;;;;;;;;;16.58;49.25;100278.94;3170107;28;19935;-69
2023/10/06 02:09:15;;;;;;;;;;;;;;;16.51;49.65;100284.69;3170038;28;19934;-69
2023/10/06 02:10:47;;;;;;;;;;;;;;;16.45;49.61;100277.19;3170187;28;19927;-69
2023/10/06 02:12:19;;;;;;;;;;;;;;;16.41;49.73;100288.81;3169876;28;19934;-68
2023/10/06 02:13:49;;;;;;;;;;;;;;;16.36;49.97;100282.06;3170365;28;19924;-68
2023/10/06 02:15:21;;;;;;;;;;;;;;;16.35;49.81;100293.50;3169418;28;19952;-68
2023/10/06 02:16:55;;;;;;;;;;;;;;;16.34;49.80;100288.34;3169881;28;20298;-68
2023/10/06 02:18:35;;;;;;;;;;;;;;;16.35;49.71;100292.66;3170052;28;19930;-68
2023/10/06 02:20:13;;;;;;;;;;;;;;;16.36;49.91;100297.84;3169978;28;19924;-68
2023/10/06 02:21:44;;;;;;;;;;;;;;;16.36;49.80;100297.84;3166457;28;19946;-67
2023/10/06 02:23:15;;;;;;;;;;;;;;;16.34;49.81;100297.09;3169373;28;19935;-67
2023/10/06 02:24:47;;;;;;;;;;;;;;;16.32;49.99;100292.84;3164381;28;19924;-68
2023/10/06 02:26:19;;;;;;;;;;;;;;;16.32;49.98;100298.94;3169599;28;19962;-68
2023/10/06 02:27:50;;;;;;;;;;;;;;;16.32;49.61;100298.09;3168616;28;20000;-68
2023/10/06 02:29:23;;;;;;;;;;;;;;;16.34;49.58;100294.44;3170127;28;19923;-68
2023/10/06 02:30:55;;;;;;;;;;;;;;;16.31;49.76;100292.00;3169598;28;19927;-68
2023/10/06 02:32:26;;;;;;;;;;;;;;;16.30;49.63;100295.59;3165851;28;19931;-68
2023/10/06 02:33:57;;;;;;;;;;;;;;;16.29;49.72;100295.66;3157833;28;20324;-67
2023/10/06 02:35:28;;;;;;;;;;;;;;;16.30;49.84;100298.22;3163279;28;19924;-67
2023/10/06 02:37:01;;;;;;;;;;;;;;;16.30;49.81;100300.00;3169604;28;19927;-66
2023/10/06 02:38:41;;;;;;;;;;;;;;;16.30;49.82;100292.13;3170269;28;20023;-66
2023/10/06 02:40:14;;;;;;;;;;;;;;;16.32;49.82;100300.75;3170104;28;20526;-66
2023/10/06 02:41:46;;;;;;;;;;;;;;;16.32;49.98;100304.19;3157948;28;19923;-66
2023/10/06 02:43:20;;;;;;;;;;;;;;;16.31;49.93;100297.28;3169438;28;19951;-66
2023/10/06 02:44:53;;;;;;;;;;;;;;;16.32;49.82;100298.09;3161092;28;19924;-65
2023/10/06 02:46:25;;;;;;;;;;;;;;;16.34;49.86;100302.34;3168182;28;19963;-65
2023/10/06 02:47:59;;;;;;;;;;;;;;;16.33;49.97;100305.06;3170087;28;19952;-66
2023/10/06 02:49:35;;;;;;;;;;;;;;;16.31;49.90;100299.06;3170044;28;20328;-66
2023/10/06 02:51:06;;;;;;;;;;;;;;;16.32;49.93;100295.47;3169795;28;19947;-65
2023/10/06 02:52:42;;;;;;;;;;;;;;;16.31;50.04;100299.91;3169712;28;19994;-65
2023/10/06 02:54:20;;;;;;;;;;;;;;;16.25;50.51;100302.06;3169989;28;19923;-65
2023/10/06 02:55:55;;;;;;;;;;;;;;;16.17;50.47;100305.13;3170142;28;19954;-66
2023/10/06 02:57:26;;;;;;;;;;;;;;;16.15;50.54;100302.63;3169868;28;19993;-65
2023/10/06 02:59:07;;;;;;;;;;;;;;;16.14;50.58;100295.66;3169726;28;19928;-66
2023/10/06 03:00:38;;;;;;;;;;;;;;;16.12;50.62;100296.72;3169773;28;19954;-66
2023/10/06 03:02:15;;;;;;;;;;;;;;;16.07;51.04;100294.34;3167635;28;20004;-67
2023/10/06 03:03:51;;;;;;;;;;;;;;;16.00;51.48;100294.78;3165815;28;20383;-68
2023/10/06 03:05:31;;;;;;;;;;;;;;;15.92;51.75;100295.28;3168296;28;19978;-68
2023/10/06 03:07:04;;;;;;;;;;;;;;;15.89;51.55;100291.03;3169789;28;20389;-68
2023/10/06 03:08:36;;;;;;;;;;;;;;;15.87;51.65;100289.44;3167929;28;19924;-68
2023/10/06 03:10:08;;;;;;;;;;;;;;;15.82;52.15;100278.34;3169448;28;20015;-68
2023/10/06 03:11:41;;;;;;;;;;;;;;;15.77;52.01;100286.53;3169995;28;19974;-68
2023/10/06 03:13:15;;;;;;;;;;;;;;;15.72;52.50;100288.56;3169935;28;19935;-68
2023/10/06 03:14:47;;;;;;;;;;;;;;;15.64;52.68;100285.50;3169895;28;20337;-68
2023/10/06 03:16:20;;;;;;;;;;;;;;;15.59;52.94;100283.16;3169373;28;19927;-68
2023/10/06 03:17:51;;;;;;;;;;;;;;;15.57;52.84;100286.81;3169891;28;19928;-68
2023/10/06 03:19:25;;;;;;;;;;;;;;;15.57;52.82;100285.03;3169749;28;19927;-68
2023/10/06 03:20:59;;;;;;;;;;;;;;;15.60;52.46;100287.47;3167235;28;20408;-67
2023/10/06 03:22:30;;;;;;;;;;;;;;;15.60;52.52;100284.00;3169589;28;19967;-68
2023/10/06 03:24:05;;;;;;;;;;;;;;;15.60;52.50;100282.22;3169857;28;19924;-68
2023/10/06 03:25:36;;;;;;;;;;;;;;;15.58;52.79;100291.09;3169956;28;20061;-68
2023/10/06 03:27:14;;;;;;;;;;;;;;;15.59;52.73;100290.19;3168360;28;19930;-68
2023/10/06 03:28:49;;;;;;;;;;;;;;;15.60;52.66;100287.47;3157238;28;20405;-68
2023/10/06 03:30:26;;;;;;;;;;;;;;;15.60;52.56;100287.47;3169141;28;19924;-68
2023/10/06 03:31:57;;;;;;;;;;;;;;;15.60;52.63;100282.22;3167962;28;19988;-68
2023/10/06 03:33:29;;;;;;;;;;;;;;;15.62;52.43;100282.97;3162094;28;20125;-68
2023/10/06 03:35:11;;;;;;;;;;;;;;;15.64;52.44;100283.72;3159423;28;19935;-68
2023/10/06 03:36:51;;;;;;;;;;;;;;;15.66;52.33;100283.63;3168543;28;20011;-69
2023/10/06 03:38:27;;;;;;;;;;;;;;;15.67;52.32;100288.81;3169531;28;19931;-68
2023/10/06 03:40:10;;;;;;;;;;;;;;;15.66;52.34;100281.00;3169411;28;20029;-69
2023/10/06 03:41:46;;;;;;;;;;;;;;;15.66;52.45;100276.59;3169437;28;19959;-69
2023/10/06 03:45:26;;;;;;;;;;;;;;;15.61;52.63;100277.81;3169846;27;20393;-70
2023/10/06 03:47:00;;;;;;;;;;;;;;;15.62;52.57;100276.88;3181120;28;20142;-69
2023/10/06 03:48:31;;;;;;;;;;;;;;;15.61;52.63;100277.81;3181140;28;19928;-69
2023/10/06 03:50:05;;;;;;;;;;;;;;;15.59;52.68;100277.91;3180705;28;19947;-69
2023/10/06 03:51:37;;;;;;;;;;;;;;;15.61;52.56;100283.91;3181383;28;20018;-69
2023/10/06 03:53:11;;;;;;;;;;;;;;;15.63;52.55;100287.28;3181027;28;20078;-68
2023/10/06 03:54:42;;;;;;;;;;;;;;;15.64;52.33;100296.00;3180665;28;19924;-69
2023/10/06 03:56:13;;;;;;;;;;;;;;;15.64;52.25;100291.59;3180593;28;20015;-67
2023/10/06 03:57:45;;;;;;;;;;;;;;;15.65;52.35;100288.06;3181361;28;20377;-69
2023/10/06 03:59:17;;;;;;;;;;;;;;;15.67;52.22;100286.19;3180418;28;20324;-69
2023/10/06 04:00:49;;;;;;;;;;;;;;;15.71;52.08;100286.88;3177485;28;19986;-69
2023/10/06 04:02:21;;;;;;;;;;;;;;;15.73;52.24;100287.63;3176361;28;19945;-69
2023/10/06 04:03:51;;;;;;;;;;;;;;;15.76;51.81;100282.19;3179592;28;19987;-68
2023/10/06 04:05:23;;;;;;;;;;;;;;;15.78;52.14;100288.19;3172688;28;20435;-76
2023/10/06 04:06:56;;;;;;;;;;;;;;;15.80;51.97;100288.97;3180626;28;19939;-77
2023/10/06 04:08:29;;;;;;;;;;;;;;;15.79;51.95;100284.63;3180579;28;20257;-71
2023/10/06 04:10:03;;;;;;;;;;;;;;;15.79;52.13;100289.03;3177899;27;20273;-69
2023/10/06 04:11:35;;;;;;;;;;;;;;;15.80;51.84;100290.75;3170712;28;20375;-70
2023/10/06 04:13:06;;;;;;;;;;;;;;;15.79;52.07;100287.25;3180685;28;19943;-71
2023/10/06 04:14:40;;;;;;;;;;;;;;;15.78;52.08;100288.19;3179730;28;19928;-67
2023/10/06 04:16:13;;;;;;;;;;;;;;;15.77;52.11;100296.19;3172885;27;19976;-68
2023/10/06 04:17:45;;;;;;;;;;;;;;;15.76;52.28;100302.34;3178375;28;20401;-67
2023/10/06 04:19:16;;;;;;;;;;;;;;;15.75;52.46;100309.38;3171582;27;19924;-74
2023/10/06 04:20:47;;;;;;;;;;;;;;;15.75;52.41;100306.75;3178581;28;19928;-71
2023/10/06 04:22:18;;;;;;;;;;;;;;;15.76;52.44;100310.22;3180944;28;19935;-70
2023/10/06 04:23:49;;;;;;;;;;;;;;;15.76;52.37;100308.44;3180898;28;19934;-72
2023/10/06 04:25:21;;;;;;;;;;;;;;;15.79;52.34;100312.69;3180645;28;20293;-70
2023/10/06 04:26:52;;;;;;;;;;;;;;;15.78;52.62;100316.25;3180186;28;20449;-65
2023/10/06 04:28:24;;;;;;;;;;;;;;;15.76;52.52;100318.94;3173595;27;19923;-67
2023/10/06 04:29:55;;;;;;;;;;;;;;;15.68;53.09;100319.41;3180999;28;19928;-68
2023/10/06 04:31:28;;;;;;;;;;;;;;;15.59;53.31;100319.91;3180811;28;20320;-67
2023/10/06 04:32:59;;;;;;;;;;;;;;;15.52;53.57;100322.97;3176755;28;20337;-65
2023/10/06 04:34:35;;;;;;;;;;;;;;;15.48;53.59;100330.19;3169127;28;19928;-67
2023/10/06 04:36:07;;;;;;;;;;;;;;;15.41;53.87;100324.44;3174673;28;19930;-67
2023/10/06 04:37:39;;;;;;;;;;;;;;;15.38;53.88;100322.00;3180712;28;19931;-64
2023/10/06 04:39:11;;;;;;;;;;;;;;;15.34;53.86;100328.31;3180567;27;19923;-65
2023/10/06 04:40:42;;;;;;;;;;;;;;;15.34;54.05;100332.72;3180584;27;19924;-70
2023/10/06 04:42:13;;;;;;;;;;;;;;;15.36;53.63;100334.34;3180920;28;19928;-67
2023/10/06 04:43:45;;;;;;;;;;;;;;;15.35;53.81;100337.91;3180521;28;20064;-68
2023/10/06 04:45:16;;;;;;;;;;;;;;;15.37;53.84;100338.66;3173280;28;19924;-76
2023/10/06 04:46:50;;;;;;;;;;;;;;;15.40;53.59;100341.09;3175938;28;19931;-73
2023/10/06 04:48:21;;;;;;;;;;;;;;;15.45;53.58;100338.22;3180564;28;19923;-72
2023/10/06 04:49:52;;;;;;;;;;;;;;;15.49;53.57;100334.47;3180740;28;19930;-73
2023/10/06 04:51:25;;;;;;;;;;;;;;;15.50;53.50;100340.56;3174812;28;19931;-74
2023/10/06 04:52:56;;;;;;;;;;;;;;;15.48;53.54;100344.13;3180528;28;19978;-69
2023/10/06 04:54:29;;;;;;;;;;;;;;;15.48;53.69;100343.31;3180305;28;19932;-70
2023/10/06 04:56:02;;;;;;;;;;;;;;;15.48;53.74;100346.75;3175075;28;19931;-70
2023/10/06 04:57:34;;;;;;;;;;;;;;;15.51;53.36;100348.38;3171714;28;20001;-71
2023/10/06 04:59:06;;;;;;;;;;;;;;;15.53;53.34;100346.53;3171802;28;19984;-71
2023/10/06 05:00:37;;;;;;;;;;;;;;;15.55;53.43;100349.03;3171230;28;20365;-68
2023/10/06 05:02:11;;;;;;;;;;;;;;;15.54;53.41;100347.34;3178533;27;19931;-69
2023/10/06 05:03:43;;;;;;;;;;;;;;;15.51;53.93;100350.16;3166784;28;19931;-67
2023/10/06 05:05:14;;;;;;;;;;;;;;;15.48;53.91;100353.81;3160214;28;19932;-65
2023/10/06 05:06:53;;;;;;;;;;;;;;;15.40;54.23;100356.00;3170132;28;19930;-65
2023/10/06 05:08:25;;;;;;;;;;;;;;;15.34;54.60;100354.56;3171667;28;20093;-66
2023/10/06 05:09:55;;;;;;;;;;;;;;;15.28;54.77;100352.28;3171310;28;19975;-64
2023/10/06 05:11:46;;;;;;;;;;;;;;;15.25;54.88;100352.47;3171077;28;20056;-64
2023/10/06 05:13:16;;;;;;;;;;;;;;;15.19;55.30;100351.03;3168919;27;20018;-64
2023/10/06 05:14:49;;;;;;;;;;;;;;;15.11;56.18;100358.47;3171380;28;19924;-64
2023/10/06 05:16:22;;;;;;;;;;;;;;;15.01;56.50;100354.66;3175331;27;19958;-66
2023/10/06 05:17:55;;;;;;;;;;;;;;;14.97;56.43;100356.63;3171635;28;19946;-64
2023/10/06 05:19:27;;;;;;;;;;;;;;;14.96;56.77;100357.53;3171225;28;19989;-64
2023/10/06 05:20:58;;;;;;;;;;;;;;;14.97;56.59;100359.25;3171203;28;19950;-64
2023/10/06 05:22:29;;;;;;;;;;;;;;;15.02;56.16;100364.22;3171429;28;20412;-64
2023/10/06 05:24:00;;;;;;;;;;;;;;;15.04;56.03;100365.00;3171337;28;19970;-64
2023/10/06 05:25:38;;;;;;;;;;;;;;;15.08;56.10;100363.03;3171507;28;19932;-64
2023/10/06 05:27:09;;;;;;;;;;;;;;;15.06;56.43;100367.53;3170102;28;19932;-64
2023/10/06 05:28:42;;;;;;;;;;;;;;;15.04;56.39;100358.91;3160677;28;19924;-67
2023/10/06 05:30:36;;;;;;;;;;;;;;;15.06;56.64;100363.13;3170977;28;19946;-68
2023/10/06 05:32:22;;;;;;;;;;;;;;;15.11;56.43;100361.09;3149361;28;19925;-66
2023/10/06 05:36:22;;;;;;;;;;;;;;;15.25;56.49;100368.19;3163591;28;19931;-67
2023/10/06 05:38:13;;;;;;;;;;;;;;;15.34;56.00;100364.22;3171444;28;19982;-65
2023/10/06 05:39:57;;;;;;;;;;;;;;;15.43;55.77;100361.09;3170922;28;19942;-66
2023/10/06 05:41:53;;;;;;;;;;;;;;;15.50;55.95;100362.44;3171430;28;20325;-66
2023/10/06 05:43:28;;;;;;;;;;;;;;;15.58;55.86;100368.06;3165502;28;20068;-67
2023/10/06 05:45:12;;;;;;;;;;;;;;;15.65;55.69;100364.19;3162935;28;19934;-67
2023/10/06 05:46:44;;;;;;;;;;;;;;;15.71;55.78;100359.56;3163751;28;19924;-67
2023/10/06 05:48:16;;;;;;;;;;;;;;;15.74;55.94;100360.22;3170554;28;19931;-65
2023/10/06 05:49:49;;;;;;;;;;;;;;;15.79;55.84;100357.31;3160224;28;19928;-65
2023/10/06 05:51:22;;;;;;;;;;;;;;;15.82;55.86;100346.63;3170407;27;19962;-65
2023/10/06 05:52:58;;;;;;;;;;;;;;;15.95;55.43;100357.28;3169713;27;20435;-65
2023/10/06 05:54:31;;;;;;;;;;;;;;;16.04;55.48;100356.75;3167444;28;19951;-65
2023/10/06 05:56:03;;;;;;;;;;;;;;;16.10;55.24;100359.84;3170515;27;20412;-64
2023/10/06 05:57:37;;;;;;;;;;;;;;;16.19;55.03;100355.84;3159922;27;20373;-64
2023/10/06 05:59:09;;;;;;;;;;;;;;;16.24;54.80;100353.78;3170152;28;19980;-64
2023/10/06 06:00:50;;;;;;;;;;;;;;;16.35;54.94;100361.84;3170116;28;19967;-64
2023/10/06 06:02:24;;;;;;;;;;;;;;;16.48;54.61;100364.59;3159581;28;19928;-64
2023/10/06 06:03:57;;;;;;;;;;;;;;;16.58;54.32;100363.09;3167738;28;20000;-65
2023/10/06 06:05:29;;;;;;;;;;;;;;;16.68;54.45;100362.50;3163121;28;19924;-65
2023/10/06 06:07:04;;;;;;;;;;;;;;;16.72;54.27;100359.63;3170190;28;20354;-64
2023/10/06 06:08:35;;;;;;;;;;;;;;;16.77;54.26;100361.97;3165110;27;20387;-64
2023/10/06 06:10:13;;;;;;;;;;;;;;;16.83;54.14;100367.72;3164206;28;20011;-64
2023/10/06 06:11:44;;;;;;;;;;;;;;;16.90;53.85;100372.59;3170926;28;20034;-65
2023/10/06 06:13:16;;;;;;;;;;;;;;;16.98;53.60;100373.81;3170044;28;19971;-62
2023/10/06 06:14:47;;;;;;;;;;;;;;;17.06;53.58;100383.84;3167695;27;20064;-66
2023/10/06 06:16:18;;;;;;;;;;;;;;;17.16;53.51;100371.81;3169370;27;19927;-67
2023/10/06 06:17:51;;;;;;;;;;;;;;;17.24;53.23;100371.31;3158974;28;20037;-66
2023/10/06 06:19:23;;;;;;;;;;;;;;;17.33;53.22;100372.50;3170621;28;19930;-66
2023/10/06 06:20:55;;;;;;;;;;;;;;;17.40;52.90;100368.56;3166088;27;19935;-65
2023/10/06 06:22:36;;;;;;;;;;;;;;;17.46;52.89;100371.63;3168143;28;19983;-65
2023/10/06 06:26:48;;;;;;;;;;;;;;;17.58;52.79;100366.50;3125102;28;20070;-64
2023/10/06 06:31:58;;;;;;;;;;;;;;;17.82;52.31;100371.97;3157100;28;19978;-64
2023/10/06 06:33:29;;;;;;;;;;;;;;;17.91;52.36;100371.38;3160308;28;19932;-64
2023/10/06 06:35:02;;;;;;;;;;;;;;;18.00;51.93;100370.75;3158637;28;19935;-64
2023/10/06 06:36:34;;;;;;;;;;;;;;;18.09;51.78;100369.28;3168244;28;19924;-64
2023/10/06 06:38:07;;;;;;;;;;;;;;;18.18;51.79;100368.66;3170375;28;19927;-64
2023/10/06 06:39:55;;;;;;;;;;;;;;;18.25;51.46;100372.59;3170231;27;20346;-64
2023/10/06 06:41:28;;;;;;;;;;;;;;;18.34;51.48;100369.31;3170503;28;19939;-64
2023/10/06 06:42:59;;;;;;;;;;;;;;;18.44;51.24;100379.25;3170346;28;19924;-64
2023/10/06 06:44:31;;;;;;;;;;;;;;;18.53;51.09;100373.31;3164599;28;20010;-64
2023/10/06 06:46:02;;;;;;;;;;;;;;;18.61;50.94;100368.38;3168959;28;20417;-63
2023/10/06 06:47:36;;;;;;;;;;;;;;;18.68;50.82;100369.63;3166624;28;19924;-63
2023/10/06 06:49:06;;;;;;;;;;;;;;;18.73;50.74;100374.59;3170172;28;19932;-64
2023/10/06 06:50:38;;;;;;;;;;;;;;;18.78;50.70;100372.47;3169989;28;20065;-64
2023/10/06 06:52:09;;;;;;;;;;;;;;;18.81;50.55;100373.13;3169623;28;20384;-63
2023/10/06 06:53:43;;;;;;;;;;;;;;;18.89;50.57;100374.38;3169744;28;19924;-63
2023/10/06 06:55:14;;;;;;;;;;;;;;;18.96;50.37;100375.63;3170055;28;19927;-64
2023/10/06 06:56:48;;;;;;;;;;;;;;;19.05;50.36;100373.19;3170169;28;19952;-63
2023/10/06 06:58:18;;;;;;;;;;;;;;;19.16;50.17;100374.19;3170643;28;19934;-63
2023/10/06 06:59:51;;;;;;;;;;;;;;;19.24;50.01;100370.06;3170602;28;19931;-63
2023/10/06 07:01:23;;;;;;;;;;;;;;;19.37;49.97;100374.44;3169917;28;19943;-63
2023/10/06 07:02:56;;;;;;;;;;;;;;;19.48;49.84;100366.59;3166070;28;19996;-64
2023/10/06 07:04:29;;;;;;;;;;;;;;;19.57;49.67;100375.63;3158764;28;20107;-63
2023/10/06 07:06:01;;;;;;;;;;;;;;;19.62;49.55;100371.69;3160364;28;19932;-63
2023/10/06 07:07:32;;;;;;;;;;;;;;;19.73;49.42;100363.03;3167709;28;20010;-63
2023/10/06 07:09:13;;;;;;;;;;;;;;;19.81;49.32;100363.28;3169564;28;20048;-64
2023/10/06 07:10:53;;;;;;;;;;;;;;;19.89;49.16;100365.34;3157670;28;19975;-64
2023/10/06 07:12:28;;;;;;;;;;;;;;;19.95;49.01;100367.53;3157470;28;19924;-64
2023/10/06 07:14:15;;;;;;;;;;;;;;;;;;;;;
2023/10/06 07:15:59;;;;;;;;;;;;;;;20.08;48.90;100367.44;3147406;28;19923;-64
2023/10/06 07:17:39;;;;;;;;;;;;;;;20.16;48.74;100365.91;3181026;27;19927;-63
2023/10/06 07:19:23;;;;;;;;;;;;;;;20.25;48.53;100367.00;3170311;28;20505;-66
2023/10/06 07:20:57;;;;;;;;;;;;;;;20.37;48.53;100366.03;3165983;28;19935;-64
2023/10/06 07:24:18;;;;;;;;;;;;;;;20.66;48.06;100376.22;3167849;28;19967;-64
2023/10/06 07:25:49;;;;;;;;;;;;;;;20.90;48.05;100376.09;3165280;28;19928;-64
2023/10/06 07:27:21;;;;;;;;;;;;;;;21.06;47.57;100376.56;3159586;28;19923;-64
2023/10/06 07:28:52;;;;;;;;;;;;;;;21.12;47.17;100377.88;3168053;28;20376;-63
2023/10/06 07:30:25;;;;;;;;;;;;;;;21.18;47.12;100365.94;3169812;28;19975;-64
2023/10/06 07:32:00;;;;;;;;;;;;;;;21.20;47.22;100370.13;3168475;28;20439;-65
2023/10/06 07:33:33;;;;;;;;;;;;;;;21.22;46.90;100367.38;3159445;28;19935;-63
2023/10/06 07:35:07;;;;;;;;;;;;;;;21.23;47.08;100371.69;3163119;28;20392;-64
2023/10/06 07:36:48;;;;;;;;;;;;;;;21.23;46.85;100372.53;3168015;28;19923;-64
2023/10/06 07:38:19;;;;;;;;;;;;;;;21.18;46.77;100368.56;3169118;28;19951;-64
2023/10/06 07:40:12;;;;;;;;;;;;;;;21.17;46.72;100374.84;3169280;28;19924;-64
2023/10/06 07:42:13;;;;;;;;;;;;;;;21.18;46.76;100369.44;3170397;28;19943;-64
2023/10/06 07:43:47;;;;;;;;;;;;;;;21.20;46.67;100366.66;3167047;28;20358;-64
2023/10/06 07:45:23;;;;;;;;;;;;;;;21.24;46.64;100365.47;3157749;28;19940;-64
2023/10/06 07:47:26;;;;;;;;;;;;;;;21.26;46.42;100359.06;3169638;28;19930;-64
2023/10/06 07:49:15;;;;;;;;;;;;;;;21.46;46.15;100357.47;3169771;28;19931;-64
2023/10/06 07:50:49;;;;;;;;;;;;;;;21.86;46.08;100353.31;3165308;28;19935;-71
2023/10/06 07:52:21;;;;;;;;;;;;;;;22.23;45.87;100357.22;3161449;28;19927;-70
2023/10/06 07:53:53;;;;;;;;;;;;;;;22.51;45.04;100356.69;3167943;28;19923;-70
2023/10/06 07:55:25;;;;;;;;;;;;;;;22.80;44.66;100360.28;3158642;28;19977;-65
2023/10/06 07:56:57;;;;;;;;;;;;;;;23.08;43.76;100358.75;3160634;28;20022;-65
2023/10/06 07:58:28;;;;;;;;;;;;;;;23.11;43.47;100363.78;3163327;28;19983;-65
2023/10/06 08:00:04;;;;;;;;;;;;;;;23.07;42.96;100356.22;3169448;28;19928;-65
2023/10/06 08:01:35;;;;;;;;;;;;;;;23.12;42.77;100359.31;3164584;28;19985;-65
2023/10/06 08:03:07;;;;;;;;;;;;;;;23.07;42.52;100358.88;3164840;28;19927;-65
2023/10/06 08:04:38;;;;;;;;;;;;;;;23.05;42.60;100355.53;3165009;28;19931;-65
2023/10/06 08:06:10;;;;;;;;;;;;;;;23.04;42.68;100359.13;3169260;28;19924;-66
2023/10/06 08:07:43;;;;;;;;;;;;;;;23.04;42.95;100357.34;3169936;28;19928;-65
2023/10/06 08:09:17;;;;;;;;;;;;;;;23.06;42.85;100367.81;3169856;28;20013;-65
2023/10/06 08:10:51;;;;;;;;;;;;;;;23.01;42.86;100362.06;3169348;28;20017;-65
2023/10/06 08:12:23;;;;;;;;;;;;;;;22.97;42.55;100358.00;3169526;28;19993;-65
2023/10/06 08:13:55;;;;;;;;;;;;;;;22.96;42.49;100361.66;3166262;28;19924;-65
2023/10/06 08:17:15;;;;;;;;;;;;;;;23.21;41.62;100360.31;3134885;28;19925;-67
2023/10/06 08:18:46;;;;;;;;;;;;;;;23.33;41.50;100352.06;3162598;28;19971;-67